sensor_id;sensor_type;location;lat;lon;timestamp;pressure;altitude;pressure_sealevel;temperature;humidity
43071;BME280;36278;47.952;21.714;2022-12-07T00:01:15;100235.06;;;2.23;100.00
43071;BME280;36278;47.952;21.714;2022-12-07T00:03:43;100226.38;;;2.23;100.00
43071;BME280;36278;47.952;21.714;2022-12-07T00:06:10;100243.69;;;2.25;100.00
43071;BME280;36278;47.952;21.714;2022-12-07T00:08:36;100238.72;;;2.40;100.00
43071;BME280;36278;47.952;21.714;2022-12-07T00:11:07;100225.56;;;2.41;100.00
43071;BME280;36278;47.952;21.714;2022-12-07T00:13:34;100235.19;;;2.41;100.00
43071;BME280;36278;47.952;21.714;2022-12-07T00:16:08;100212.66;;;2.18;100.00
43071;BME280;36278;47.952;21.714;2022-12-07T00:18:34;100237.75;;;2.22;100.00
43071;BME280;36278;47.952;21.714;2022-12-07T00:21:30;100245.78;;;2.17;100.00
43071;BME280;36278;47.952;21.714;2022-12-07T00:23:56;100239.22;;;2.28;100.00
43071;BME280;36278;47.952;21.714;2022-12-07T00:26:23;100236.44;;;2.12;100.00
43071;BME280;36278;47.952;21.714;2022-12-07T00:28:50;100238.00;;;2.16;100.00
43071;BME280;36278;47.952;21.714;2022-12-07T00:31:18;100244.00;;;2.18;100.00
43071;BME280;36278;47.952;21.714;2022-12-07T00:33:44;100235.84;;;2.05;100.00
43071;BME280;36278;47.952;21.714;2022-12-07T00:36:13;100235.41;;;1.74;100.00
43071;BME280;36278;47.952;21.714;2022-12-07T00:38:39;100247.31;;;1.81;100.00
43071;BME280;36278;47.952;21.714;2022-12-07T00:41:13;100237.03;;;1.98;100.00
43071;BME280;36278;47.952;21.714;2022-12-07T00:43:40;100232.44;;;2.03;100.00
43071;BME280;36278;47.952;21.714;2022-12-07T00:46:06;100240.41;;;2.00;100.00
43071;BME280;36278;47.952;21.714;2022-12-07T00:48:31;100252.41;;;1.84;100.00
43071;BME280;36278;47.952;21.714;2022-12-07T00:50:57;100246.50;;;1.79;100.00
43071;BME280;36278;47.952;21.714;2022-12-07T00:53:23;100248.88;;;1.85;100.00
43071;BME280;36278;47.952;21.714;2022-12-07T00:55:48;100244.78;;;1.79;100.00
43071;BME280;36278;47.952;21.714;2022-12-07T00:58:14;100240.50;;;1.77;100.00
43071;BME280;36278;47.952;21.714;2022-12-07T01:00:41;100234.97;;;1.62;100.00
43071;BME280;36278;47.952;21.714;2022-12-07T01:03:09;100248.47;;;1.74;100.00
43071;BME280;36278;47.952;21.714;2022-12-07T01:05:35;100255.09;;;1.82;100.00
43071;BME280;36278;47.952;21.714;2022-12-07T01:08:00;100251.50;;;1.85;100.00
43071;BME280;36278;47.952;21.714;2022-12-07T01:10:26;100253.19;;;1.86;100.00
43071;BME280;36278;47.952;21.714;2022-12-07T01:12:53;100247.00;;;1.88;100.00
43071;BME280;36278;47.952;21.714;2022-12-07T01:15:18;100245.25;;;1.89;100.00
43071;BME280;36278;47.952;21.714;2022-12-07T01:17:44;100253.16;;;1.87;100.00
43071;BME280;36278;47.952;21.714;2022-12-07T01:20:10;100248.22;;;1.80;100.00
43071;BME280;36278;47.952;21.714;2022-12-07T01:22:40;100245.47;;;1.83;100.00
43071;BME280;36278;47.952;21.714;2022-12-07T01:25:07;100240.78;;;1.91;100.00
43071;BME280;36278;47.952;21.714;2022-12-07T01:27:34;100251.31;;;1.89;100.00
43071;BME280;36278;47.952;21.714;2022-12-07T01:30:01;100236.72;;;1.84;100.00
43071;BME280;36278;47.952;21.714;2022-12-07T01:32:27;100231.75;;;1.78;100.00
43071;BME280;36278;47.952;21.714;2022-12-07T01:34:54;100230.06;;;1.77;100.00
43071;BME280;36278;47.952;21.714;2022-12-07T01:37:19;100224.97;;;1.74;100.00
43071;BME280;36278;47.952;21.714;2022-12-07T01:39:48;100225.44;;;1.61;100.00
43071;BME280;36278;47.952;21.714;2022-12-07T01:42:14;100220.97;;;1.65;100.00
43071;BME280;36278;47.952;21.714;2022-12-07T01:47:44;100215.16;;;1.79;100.00
43071;BME280;36278;47.952;21.714;2022-12-07T01:50:12;100218.75;;;1.56;100.00
43071;BME280;36278;47.952;21.714;2022-12-07T01:52:39;100211.91;;;1.74;100.00
43071;BME280;36278;47.952;21.714;2022-12-07T01:55:09;100219.31;;;1.62;100.00
43071;BME280;36278;47.952;21.714;2022-12-07T01:57:40;100220.50;;;1.55;100.00
43071;BME280;36278;47.952;21.714;2022-12-07T02:00:07;100224.00;;;1.54;100.00
43071;BME280;36278;47.952;21.714;2022-12-07T02:02:37;100220.00;;;1.67;100.00
43071;BME280;36278;47.952;21.714;2022-12-07T02:05:05;100223.59;;;1.65;100.00
43071;BME280;36278;47.952;21.714;2022-12-07T02:07:33;100229.22;;;1.76;100.00
43071;BME280;36278;47.952;21.714;2022-12-07T02:10:20;100231.72;;;1.79;100.00
43071;BME280;36278;47.952;21.714;2022-12-07T02:12:51;100224.97;;;1.74;100.00
43071;BME280;36278;47.952;21.714;2022-12-07T02:15:20;100229.59;;;1.67;100.00
43071;BME280;36278;47.952;21.714;2022-12-07T02:18:07;100220.53;;;1.54;100.00
43071;BME280;36278;47.952;21.714;2022-12-07T02:20:50;100215.84;;;1.62;100.00
43071;BME280;36278;47.952;21.714;2022-12-07T02:31:43;100223.28;;;1.73;100.00
43071;BME280;36278;47.952;21.714;2022-12-07T02:37:25;100211.38;;;1.65;100.00
43071;BME280;36278;47.952;21.714;2022-12-07T02:40:08;100218.47;;;1.62;100.00
43071;BME280;36278;47.952;21.714;2022-12-07T02:42:40;100210.78;;;1.59;100.00
43071;BME280;36278;47.952;21.714;2022-12-07T02:45:10;100211.00;;;1.53;100.00
43071;BME280;36278;47.952;21.714;2022-12-07T02:47:39;100211.06;;;1.51;100.00
43071;BME280;36278;47.952;21.714;2022-12-07T02:50:06;100212.97;;;1.48;100.00
43071;BME280;36278;47.952;21.714;2022-12-07T02:52:32;100217.44;;;1.44;100.00
43071;BME280;36278;47.952;21.714;2022-12-07T02:54:57;100221.44;;;1.53;100.00
43071;BME280;36278;47.952;21.714;2022-12-07T03:00:02;100222.31;;;1.53;100.00
43071;BME280;36278;47.952;21.714;2022-12-07T03:08:23;100214.00;;;1.86;100.00
43071;BME280;36278;47.952;21.714;2022-12-07T03:18:54;100206.38;;;2.02;100.00
43071;BME280;36278;47.952;21.714;2022-12-07T03:21:49;100209.31;;;2.14;100.00
43071;BME280;36278;47.952;21.714;2022-12-07T03:24:22;100205.97;;;2.11;100.00
43071;BME280;36278;47.952;21.714;2022-12-07T03:26:51;100213.78;;;2.12;100.00
43071;BME280;36278;47.952;21.714;2022-12-07T03:29:28;100216.50;;;2.09;100.00
43071;BME280;36278;47.952;21.714;2022-12-07T03:32:23;100209.25;;;2.16;100.00
43071;BME280;36278;47.952;21.714;2022-12-07T03:35:00;100204.41;;;2.27;100.00
43071;BME280;36278;47.952;21.714;2022-12-07T03:37:40;100202.53;;;2.31;100.00
43071;BME280;36278;47.952;21.714;2022-12-07T03:40:16;100203.53;;;2.28;100.00
43071;BME280;36278;47.952;21.714;2022-12-07T03:42:44;100184.31;;;2.29;100.00
43071;BME280;36278;47.952;21.714;2022-12-07T03:45:11;100188.88;;;2.44;100.00
43071;BME280;36278;47.952;21.714;2022-12-07T03:47:46;100191.19;;;2.50;100.00
43071;BME280;36278;47.952;21.714;2022-12-07T03:52:53;100186.53;;;2.57;99.51
43071;BME280;36278;47.952;21.714;2022-12-07T03:55:28;100190.22;;;2.53;100.00
43071;BME280;36278;47.952;21.714;2022-12-07T03:57:59;100192.34;;;2.64;99.72
43071;BME280;36278;47.952;21.714;2022-12-07T04:00:25;100189.56;;;2.67;99.60
43071;BME280;36278;47.952;21.714;2022-12-07T04:02:52;100193.97;;;2.66;99.92
43071;BME280;36278;47.952;21.714;2022-12-07T04:05:18;100192.00;;;2.71;99.40
43071;BME280;36278;47.952;21.714;2022-12-07T04:07:44;100181.38;;;2.74;98.26
43071;BME280;36278;47.952;21.714;2022-12-07T04:10:10;100173.25;;;2.62;98.41
43071;BME280;36278;47.952;21.714;2022-12-07T04:12:36;100181.66;;;2.68;99.64
43071;BME280;36278;47.952;21.714;2022-12-07T04:15:02;100176.56;;;2.65;99.14
43071;BME280;36278;47.952;21.714;2022-12-07T04:17:27;100168.72;;;2.65;100.00
43071;BME280;36278;47.952;21.714;2022-12-07T04:19:53;100173.19;;;2.63;99.75
43071;BME280;36278;47.952;21.714;2022-12-07T04:22:18;100167.03;;;2.64;100.00
43071;BME280;36278;47.952;21.714;2022-12-07T04:24:44;100174.53;;;2.72;99.42
43071;BME280;36278;47.952;21.714;2022-12-07T04:27:09;100179.75;;;2.72;99.76
43071;BME280;36278;47.952;21.714;2022-12-07T04:29:35;100176.94;;;2.76;99.37
43071;BME280;36278;47.952;21.714;2022-12-07T04:32:01;100179.16;;;2.86;98.04
43071;BME280;36278;47.952;21.714;2022-12-07T04:34:26;100183.06;;;2.75;99.30
43071;BME280;36278;47.952;21.714;2022-12-07T04:36:52;100179.41;;;2.79;100.00
43071;BME280;36278;47.952;21.714;2022-12-07T04:39:21;100179.50;;;2.78;99.16
43071;BME280;36278;47.952;21.714;2022-12-07T04:41:47;100174.88;;;2.83;99.08
43071;BME280;36278;47.952;21.714;2022-12-07T04:44:12;100187.25;;;2.79;98.64
43071;BME280;36278;47.952;21.714;2022-12-07T04:46:40;100182.53;;;2.88;97.66
43071;BME280;36278;47.952;21.714;2022-12-07T04:49:05;100173.69;;;2.90;98.52
43071;BME280;36278;47.952;21.714;2022-12-07T04:51:31;100180.03;;;2.85;98.96
43071;BME280;36278;47.952;21.714;2022-12-07T04:53:57;100188.59;;;2.88;99.59
43071;BME280;36278;47.952;21.714;2022-12-07T04:56:23;100184.22;;;2.89;99.40
43071;BME280;36278;47.952;21.714;2022-12-07T04:58:50;100182.97;;;2.78;98.21
43071;BME280;36278;47.952;21.714;2022-12-07T05:01:17;100174.69;;;2.69;100.00
43071;BME280;36278;47.952;21.714;2022-12-07T05:03:43;100179.53;;;2.76;100.00
43071;BME280;36278;47.952;21.714;2022-12-07T05:06:10;100181.19;;;2.79;100.00
43071;BME280;36278;47.952;21.714;2022-12-07T05:08:36;100185.16;;;2.69;100.00
43071;BME280;36278;47.952;21.714;2022-12-07T05:11:03;100184.91;;;2.73;100.00
43071;BME280;36278;47.952;21.714;2022-12-07T05:13:30;100186.41;;;2.79;100.00
43071;BME280;36278;47.952;21.714;2022-12-07T05:15:56;100182.09;;;2.78;100.00
43071;BME280;36278;47.952;21.714;2022-12-07T05:18:21;100185.22;;;2.86;100.00
43071;BME280;36278;47.952;21.714;2022-12-07T05:20:48;100188.25;;;2.96;100.00
43071;BME280;36278;47.952;21.714;2022-12-07T05:23:14;100188.94;;;2.99;100.00
43071;BME280;36278;47.952;21.714;2022-12-07T05:25:40;100183.94;;;2.95;100.00
43071;BME280;36278;47.952;21.714;2022-12-07T05:28:05;100174.44;;;2.92;100.00
43071;BME280;36278;47.952;21.714;2022-12-07T05:30:31;100185.41;;;3.00;99.79
43071;BME280;36278;47.952;21.714;2022-12-07T05:32:57;100194.25;;;2.98;100.00
43071;BME280;36278;47.952;21.714;2022-12-07T05:35:23;100184.50;;;3.01;100.00
43071;BME280;36278;47.952;21.714;2022-12-07T05:37:48;100188.97;;;3.18;100.00
43071;BME280;36278;47.952;21.714;2022-12-07T05:40:15;100188.13;;;3.18;100.00
43071;BME280;36278;47.952;21.714;2022-12-07T05:42:40;100185.53;;;3.16;100.00
43071;BME280;36278;47.952;21.714;2022-12-07T05:45:07;100186.38;;;3.17;100.00
43071;BME280;36278;47.952;21.714;2022-12-07T05:47:33;100182.72;;;3.21;100.00
43071;BME280;36278;47.952;21.714;2022-12-07T05:49:58;100191.13;;;3.27;100.00
43071;BME280;36278;47.952;21.714;2022-12-07T05:52:23;100181.50;;;3.28;100.00
43071;BME280;36278;47.952;21.714;2022-12-07T05:54:49;100189.97;;;3.33;100.00
43071;BME280;36278;47.952;21.714;2022-12-07T05:57:15;100175.25;;;3.30;100.00
43071;BME280;36278;47.952;21.714;2022-12-07T05:59:41;100175.25;;;3.30;100.00
43071;BME280;36278;47.952;21.714;2022-12-07T06:02:09;100178.66;;;3.32;100.00
43071;BME280;36278;47.952;21.714;2022-12-07T06:04:37;100182.91;;;3.35;100.00
43071;BME280;36278;47.952;21.714;2022-12-07T06:07:05;100185.38;;;3.38;100.00
43071;BME280;36278;47.952;21.714;2022-12-07T06:09:31;100188.16;;;3.35;100.00
43071;BME280;36278;47.952;21.714;2022-12-07T06:11:57;100192.38;;;3.37;100.00
43071;BME280;36278;47.952;21.714;2022-12-07T06:14:42;100188.69;;;3.42;100.00
43071;BME280;36278;47.952;21.714;2022-12-07T06:17:08;100187.59;;;3.28;100.00
43071;BME280;36278;47.952;21.714;2022-12-07T06:19:34;100187.00;;;3.41;100.00
43071;BME280;36278;47.952;21.714;2022-12-07T06:22:00;100189.59;;;3.41;100.00
43071;BME280;36278;47.952;21.714;2022-12-07T06:24:26;100188.38;;;3.48;100.00
43071;BME280;36278;47.952;21.714;2022-12-07T06:26:51;100177.31;;;3.43;100.00
43071;BME280;36278;47.952;21.714;2022-12-07T06:29:17;100193.50;;;3.51;100.00
43071;BME280;36278;47.952;21.714;2022-12-07T06:31:43;100190.25;;;3.46;100.00
43071;BME280;36278;47.952;21.714;2022-12-07T06:34:12;100182.09;;;3.52;100.00
43071;BME280;36278;47.952;21.714;2022-12-07T06:36:38;100181.25;;;3.51;100.00
43071;BME280;36278;47.952;21.714;2022-12-07T06:39:04;100189.63;;;3.58;100.00
43071;BME280;36278;47.952;21.714;2022-12-07T06:41:30;100191.47;;;3.56;100.00
43071;BME280;36278;47.952;21.714;2022-12-07T06:43:56;100194.25;;;3.53;100.00
43071;BME280;36278;47.952;21.714;2022-12-07T06:46:22;100188.38;;;3.48;100.00
43071;BME280;36278;47.952;21.714;2022-12-07T06:48:47;100185.78;;;3.48;100.00
43071;BME280;36278;47.952;21.714;2022-12-07T06:51:13;100177.84;;;3.49;100.00
43071;BME280;36278;47.952;21.714;2022-12-07T06:53:38;100177.91;;;3.48;100.00
43071;BME280;36278;47.952;21.714;2022-12-07T06:56:04;100189.84;;;3.36;100.00
43071;BME280;36278;47.952;21.714;2022-12-07T06:58:30;100186.03;;;3.24;100.00
43071;BME280;36278;47.952;21.714;2022-12-07T07:00:56;100191.38;;;3.40;100.00
43071;BME280;36278;47.952;21.714;2022-12-07T07:03:22;100189.84;;;3.36;100.00
43071;BME280;36278;47.952;21.714;2022-12-07T07:05:48;100188.63;;;3.24;100.00
43071;BME280;36278;47.952;21.714;2022-12-07T07:08:14;100191.13;;;3.27;100.00
43071;BME280;36278;47.952;21.714;2022-12-07T07:10:40;100187.19;;;3.19;100.00
43071;BME280;36278;47.952;21.714;2022-12-07T07:13:06;100189.94;;;3.16;100.00
43071;BME280;36278;47.952;21.714;2022-12-07T07:15:32;100185.97;;;3.26;100.00
43071;BME280;36278;47.952;21.714;2022-12-07T07:17:58;100193.28;;;3.19;100.00
43071;BME280;36278;47.952;21.714;2022-12-07T07:20:24;100195.44;;;3.28;100.00
43071;BME280;36278;47.952;21.714;2022-12-07T07:22:50;100200.03;;;3.42;100.00
43071;BME280;36278;47.952;21.714;2022-12-07T07:25:16;100190.25;;;3.46;100.00
43071;BME280;36278;47.952;21.714;2022-12-07T07:27:41;100198.63;;;3.35;100.00
43071;BME280;36278;47.952;21.714;2022-12-07T07:30:08;100192.94;;;3.44;100.00
43071;BME280;36278;47.952;21.714;2022-12-07T07:32:34;100186.25;;;3.56;100.00
43071;BME280;36278;47.952;21.714;2022-12-07T07:34:59;100191.88;;;3.65;100.00
43071;BME280;36278;47.952;21.714;2022-12-07T07:37:25;100185.31;;;3.57;100.00
43071;BME280;36278;47.952;21.714;2022-12-07T07:39:51;100197.66;;;3.72;100.00
43071;BME280;36278;47.952;21.714;2022-12-07T07:42:17;100188.97;;;3.72;100.00
43071;BME280;36278;47.952;21.714;2022-12-07T07:44:42;100187.66;;;3.80;100.00
43071;BME280;36278;47.952;21.714;2022-12-07T07:47:08;100195.50;;;3.80;100.00
43071;BME280;36278;47.952;21.714;2022-12-07T07:49:33;100195.84;;;3.91;100.00
43071;BME280;36278;47.952;21.714;2022-12-07T07:51:59;100207.56;;;3.84;100.00
43071;BME280;36278;47.952;21.714;2022-12-07T07:54:24;100201.59;;;3.81;100.00
43071;BME280;36278;47.952;21.714;2022-12-07T07:56:52;100202.44;;;3.81;100.00
43071;BME280;36278;47.952;21.714;2022-12-07T07:59:18;100207.94;;;3.77;100.00
43071;BME280;36278;47.952;21.714;2022-12-07T08:01:44;100201.53;;;3.82;100.00
43071;BME280;36278;47.952;21.714;2022-12-07T08:04:09;100204.31;;;3.79;100.00
43071;BME280;36278;47.952;21.714;2022-12-07T08:06:35;100201.75;;;3.78;100.00
43071;BME280;36278;47.952;21.714;2022-12-07T08:09:00;100204.84;;;3.86;100.00
43071;BME280;36278;47.952;21.714;2022-12-07T08:11:26;100201.09;;;3.91;100.00
43071;BME280;36278;47.952;21.714;2022-12-07T08:13:51;100201.59;;;3.98;100.00
43071;BME280;36278;47.952;21.714;2022-12-07T08:16:17;100185.28;;;4.10;100.00
43071;BME280;36278;47.952;21.714;2022-12-07T08:18:42;100190.69;;;4.07;100.00
43071;BME280;36278;47.952;21.714;2022-12-07T08:21:11;100194.59;;;4.16;99.97
43071;BME280;36278;47.952;21.714;2022-12-07T08:23:38;100205.31;;;4.11;100.00
43071;BME280;36278;47.952;21.714;2022-12-07T08:26:14;100198.38;;;4.10;99.95
43071;BME280;36278;47.952;21.714;2022-12-07T08:28:40;100202.47;;;4.16;100.00
43071;BME280;36278;47.952;21.714;2022-12-07T08:31:09;100204.78;;;4.05;99.57
43071;BME280;36278;47.952;21.714;2022-12-07T08:33:35;100187.81;;;4.12;99.70
43071;BME280;36278;47.952;21.714;2022-12-07T08:36:03;100193.34;;;4.23;99.31
43071;BME280;36278;47.952;21.714;2022-12-07T08:38:29;100194.13;;;4.25;99.86
43071;BME280;36278;47.952;21.714;2022-12-07T08:40:58;100195.81;;;4.26;99.78
43071;BME280;36278;47.952;21.714;2022-12-07T08:43:24;100197.13;;;4.35;98.59
43071;BME280;36278;47.952;21.714;2022-12-07T08:46:08;100197.00;;;4.03;100.00
43071;BME280;36278;47.952;21.714;2022-12-07T08:48:39;100205.03;;;4.00;100.00
43071;BME280;36278;47.952;21.714;2022-12-07T08:51:06;100204.94;;;4.02;100.00
43071;BME280;36278;47.952;21.714;2022-12-07T08:53:33;100219.44;;;3.91;100.00
43071;BME280;36278;47.952;21.714;2022-12-07T08:56:00;100215.41;;;3.84;100.00
43071;BME280;36278;47.952;21.714;2022-12-07T08:58:26;100220.78;;;3.99;100.00
43071;BME280;36278;47.952;21.714;2022-12-07T09:00:52;100215.88;;;4.10;99.97
43071;BME280;36278;47.952;21.714;2022-12-07T09:03:17;100199.91;;;3.97;100.00
43071;BME280;36278;47.952;21.714;2022-12-07T09:05:43;100207.75;;;4.14;100.00
43071;BME280;36278;47.952;21.714;2022-12-07T09:08:08;100200.25;;;4.08;99.56
43071;BME280;36278;47.952;21.714;2022-12-07T09:10:34;100200.28;;;4.07;100.00
43071;BME280;36278;47.952;21.714;2022-12-07T09:12:59;100193.28;;;4.25;99.58
43071;BME280;36278;47.952;21.714;2022-12-07T09:15:27;100198.97;;;4.33;98.57
43071;BME280;36278;47.952;21.714;2022-12-07T09:17:53;100200.72;;;4.49;98.01
43071;BME280;36278;47.952;21.714;2022-12-07T09:20:18;100193.06;;;4.45;98.73
43071;BME280;36278;47.952;21.714;2022-12-07T09:22:44;100187.44;;;4.53;97.08
43071;BME280;36278;47.952;21.714;2022-12-07T09:25:09;100188.91;;;4.58;96.67
43071;BME280;36278;47.952;21.714;2022-12-07T09:27:35;100178.31;;;4.60;96.66
43071;BME280;36278;47.952;21.714;2022-12-07T09:30:01;100182.53;;;4.62;97.66
43071;BME280;36278;47.952;21.714;2022-12-07T09:32:26;100180.25;;;4.56;98.70
43071;BME280;36278;47.952;21.714;2022-12-07T09:34:51;100178.03;;;4.48;97.78
43071;BME280;36278;47.952;21.714;2022-12-07T09:37:19;100172.94;;;4.45;98.87
43071;BME280;36278;47.952;21.714;2022-12-07T09:39:44;100176.53;;;4.60;98.52
43071;BME280;36278;47.952;21.714;2022-12-07T09:42:26;100171.06;;;4.81;96.71
43071;BME280;36278;47.952;21.714;2022-12-07T09:44:52;100172.69;;;4.83;95.16
43071;BME280;36278;47.952;21.714;2022-12-07T09:47:18;100171.41;;;4.90;95.76
43071;BME280;36278;47.952;21.714;2022-12-07T09:49:43;100172.50;;;5.02;95.12
43071;BME280;36278;47.952;21.714;2022-12-07T09:54:41;100156.41;;;5.24;94.34
43071;BME280;36278;47.952;21.714;2022-12-07T09:57:10;100152.16;;;5.37;94.79
43071;BME280;36278;47.952;21.714;2022-12-07T09:59:37;100154.31;;;5.60;92.98
43071;BME280;36278;47.952;21.714;2022-12-07T10:04:53;100143.75;;;5.76;92.27
43071;BME280;36278;47.952;21.714;2022-12-07T10:07:20;100144.69;;;5.91;91.93
43071;BME280;36278;47.952;21.714;2022-12-07T10:09:45;100154.38;;;6.05;91.54
43071;BME280;36278;47.952;21.714;2022-12-07T10:12:11;100150.81;;;6.06;92.16
43071;BME280;36278;47.952;21.714;2022-12-07T10:15:12;100152.69;;;6.18;91.36
43071;BME280;36278;47.952;21.714;2022-12-07T10:17:38;100160.59;;;5.88;90.74
43071;BME280;36278;47.952;21.714;2022-12-07T10:22:37;100161.53;;;5.57;92.50
43071;BME280;36278;47.952;21.714;2022-12-07T10:25:18;100164.25;;;5.55;92.90
43071;BME280;36278;47.952;21.714;2022-12-07T10:27:58;100157.72;;;5.62;92.90
43071;BME280;36278;47.952;21.714;2022-12-07T10:30:25;100151.16;;;5.40;93.38
43071;BME280;36278;47.952;21.714;2022-12-07T10:32:50;100157.41;;;5.37;94.02
43071;BME280;36278;47.952;21.714;2022-12-07T10:35:26;100157.56;;;5.50;94.10
43071;BME280;36278;47.952;21.714;2022-12-07T10:37:54;100159.09;;;5.54;93.52
43071;BME280;36278;47.952;21.714;2022-12-07T10:40:32;100156.06;;;5.46;94.00
43071;BME280;36278;47.952;21.714;2022-12-07T10:43:18;100148.78;;;5.35;95.03
43071;BME280;36278;47.952;21.714;2022-12-07T10:48:22;100156.81;;;5.48;94.71
43071;BME280;36278;47.952;21.714;2022-12-07T10:50:59;100145.97;;;5.54;94.94
43071;BME280;36278;47.952;21.714;2022-12-07T11:01:33;100137.09;;;5.41;95.29
43071;BME280;36278;47.952;21.714;2022-12-07T11:06:47;100139.81;;;5.53;93.83
43071;BME280;36278;47.952;21.714;2022-12-07T11:18:06;100132.59;;;5.73;94.17
43071;BME280;36278;47.952;21.714;2022-12-07T11:21:07;100134.50;;;5.55;93.39
43071;BME280;36278;47.952;21.714;2022-12-07T11:32:54;100121.88;;;5.76;93.27
43071;BME280;36278;47.952;21.714;2022-12-07T11:35:54;100122.81;;;5.75;93.15
43071;BME280;36278;47.952;21.714;2022-12-07T11:38:28;100124.31;;;5.65;94.38
43071;BME280;36278;47.952;21.714;2022-12-07T11:41:01;100120.53;;;5.54;95.58
43071;BME280;36278;47.952;21.714;2022-12-07T11:43:55;100120.59;;;5.53;95.18
43071;BME280;36278;47.952;21.714;2022-12-07T11:46:27;100121.56;;;5.36;95.17
43071;BME280;36278;47.952;21.714;2022-12-07T11:49:30;100109.22;;;5.38;97.60
43071;BME280;36278;47.952;21.714;2022-12-07T11:52:04;100104.19;;;5.49;96.77
43071;BME280;36278;47.952;21.714;2022-12-07T11:54:40;100108.78;;;5.60;96.38
43071;BME280;36278;47.952;21.714;2022-12-07T11:57:19;100102.88;;;5.86;96.31
43071;BME280;36278;47.952;21.714;2022-12-07T11:59:52;100106.38;;;6.01;95.86
43071;BME280;36278;47.952;21.714;2022-12-07T12:02:26;100101.41;;;6.25;92.59
43071;BME280;36278;47.952;21.714;2022-12-07T12:04:58;100095.94;;;6.00;93.03
43071;BME280;36278;47.952;21.714;2022-12-07T12:07:27;100094.75;;;6.05;93.69
43071;BME280;36278;47.952;21.714;2022-12-07T12:09:58;100099.06;;;6.21;93.86
43071;BME280;36278;47.952;21.714;2022-12-07T12:20:26;100101.44;;;6.11;93.40
43071;BME280;36278;47.952;21.714;2022-12-07T12:22:58;100102.44;;;6.23;92.86
43071;BME280;36278;47.952;21.714;2022-12-07T12:25:41;100101.88;;;6.46;92.17
43071;BME280;36278;47.952;21.714;2022-12-07T12:28:40;100103.19;;;6.39;91.72
43071;BME280;36278;47.952;21.714;2022-12-07T12:33:58;100095.59;;;6.20;92.27
43071;BME280;36278;47.952;21.714;2022-12-07T12:41:55;100095.09;;;5.99;93.90
43071;BME280;36278;47.952;21.714;2022-12-07T12:51:45;100097.66;;;6.29;91.51
43071;BME280;36278;47.952;21.714;2022-12-07T12:54:24;100092.78;;;6.52;90.78
43071;BME280;36278;47.952;21.714;2022-12-07T12:57:12;100103.75;;;6.58;90.72
43071;BME280;36278;47.952;21.714;2022-12-07T13:02:27;100097.16;;;6.65;90.58
43071;BME280;36278;47.952;21.714;2022-12-07T13:13:28;100101.81;;;6.89;88.79
43071;BME280;36278;47.952;21.714;2022-12-07T13:18:40;100094.75;;;7.43;84.96
43071;BME280;36278;47.952;21.714;2022-12-07T13:26:14;100109.34;;;7.62;84.14
43071;BME280;36278;47.952;21.714;2022-12-07T13:34:01;100094.72;;;7.83;83.83
43071;BME280;36278;47.952;21.714;2022-12-07T13:36:38;100099.03;;;7.84;84.87
43071;BME280;36278;47.952;21.714;2022-12-07T13:39:34;100100.22;;;8.31;81.53
43071;BME280;36278;47.952;21.714;2022-12-07T13:42:30;100097.47;;;8.45;82.52
43071;BME280;36278;47.952;21.714;2022-12-07T13:44:59;100101.34;;;8.14;82.62
43071;BME280;36278;47.952;21.714;2022-12-07T13:47:36;100103.38;;;7.85;83.14
43071;BME280;36278;47.952;21.714;2022-12-07T13:50:31;100106.97;;;7.44;85.52
43071;BME280;36278;47.952;21.714;2022-12-07T13:52:59;100102.88;;;7.13;86.38
43071;BME280;36278;47.952;21.714;2022-12-07T13:55:25;100104.25;;;7.19;87.49
43071;BME280;36278;47.952;21.714;2022-12-07T13:57:53;100104.75;;;7.11;86.82
43071;BME280;36278;47.952;21.714;2022-12-07T14:00:22;100093.22;;;6.58;90.13
43071;BME280;36278;47.952;21.714;2022-12-07T14:03:23;100107.88;;;6.48;90.96
43071;BME280;36278;47.952;21.714;2022-12-07T14:06:16;100105.34;;;6.32;92.13
43071;BME280;36278;47.952;21.714;2022-12-07T14:08:43;100107.91;;;6.05;94.42
43071;BME280;36278;47.952;21.714;2022-12-07T14:11:17;100101.94;;;5.87;94.80
43071;BME280;36278;47.952;21.714;2022-12-07T14:13:51;100098.31;;;5.74;96.70
43071;BME280;36278;47.952;21.714;2022-12-07T14:16:32;100097.94;;;5.66;95.67
43071;BME280;36278;47.952;21.714;2022-12-07T14:19:02;100087.03;;;5.58;97.56
43071;BME280;36278;47.952;21.714;2022-12-07T14:21:30;100089.00;;;5.54;97.74
43071;BME280;36278;47.952;21.714;2022-12-07T14:24:14;100100.72;;;5.49;98.53
43071;BME280;36278;47.952;21.714;2022-12-07T14:26:40;100095.81;;;5.43;98.24
43071;BME280;36278;47.952;21.714;2022-12-07T14:29:42;100091.72;;;5.23;100.00
43071;BME280;36278;47.952;21.714;2022-12-07T14:34:57;100056.38;;;5.13;100.00
43071;BME280;36278;47.952;21.714;2022-12-07T14:37:24;100056.66;;;5.08;100.00
43071;BME280;36278;47.952;21.714;2022-12-07T14:39:50;100058.03;;;4.99;100.00
43071;BME280;36278;47.952;21.714;2022-12-07T14:42:16;100080.47;;;5.05;100.00
43071;BME280;36278;47.952;21.714;2022-12-07T14:44:43;100091.13;;;5.02;100.00
43071;BME280;36278;47.952;21.714;2022-12-07T14:47:12;100109.16;;;5.08;99.63
43071;BME280;36278;47.952;21.714;2022-12-07T14:49:38;100114.84;;;5.00;100.00
43071;BME280;36278;47.952;21.714;2022-12-07T14:52:05;100116.97;;;4.94;100.00
43071;BME280;36278;47.952;21.714;2022-12-07T14:54:31;100118.84;;;4.92;100.00
43071;BME280;36278;47.952;21.714;2022-12-07T14:56:58;100120.84;;;4.87;100.00
43071;BME280;36278;47.952;21.714;2022-12-07T14:59:24;100112.00;;;4.89;100.00